Time;durP1;ratioP1;P1;durP2;ratioP2;P2;SDS_P1;SDS_P2;PMS_P1;PMS_P2;Temp;Humidity;BMP_temperature;BMP_pressure;BME280_temperature;BME280_humidity;BME280_pressure;Samples;Min_cycle;Max_cycle;Signal;HPM_P1;HPM_P2
2023/03/02 00:01:26;;;;;;;;;;;-0.40;99.90;;;;;;4997526;28;19925;-77
2023/03/02 00:03:52;;;;;;;;;;;-0.40;99.90;;;;;;4994752;28;19917;-76
2023/03/02 00:06:18;;;;;;;;;;;-0.40;99.90;;;;;;4999626;28;19932;-80
2023/03/02 00:08:45;;;;;;;;;;;-0.40;99.90;;;;;;4988988;28;19925;-76
2023/03/02 00:11:14;;;;;;;;;;;-0.30;99.90;;;;;;4996385;28;19917;-78
2023/03/02 00:13:40;;;;;;;;;;;-0.20;99.90;;;;;;4995041;28;19913;-77
2023/03/02 00:16:06;;;;;;;;;;;-0.10;99.90;;;;;;4995125;28;19910;-76
2023/03/02 00:18:32;;;;;;;;;;;0.00;99.90;;;;;;4994576;28;19918;-80
2023/03/02 00:20:58;;;;;;;;;;;0.10;99.90;;;;;;4994900;28;19914;-77
2023/03/02 00:23:24;;;;;;;;;;;0.00;99.90;;;;;;4995959;28;19914;-76
2023/03/02 00:25:50;;;;;;;;;;;0.00;99.90;;;;;;4978065;28;20004;-77
2023/03/02 00:28:16;;;;;;;;;;;0.00;99.90;;;;;;4997035;28;19957;-76
2023/03/02 00:30:42;;;;;;;;;;;0.00;99.90;;;;;;4998860;28;19937;-77
2023/03/02 00:33:08;;;;;;;;;;;0.00;99.90;;;;;;4992141;28;20012;-77
2023/03/02 00:35:38;;;;;;;;;;;-0.10;99.90;;;;;;4995182;28;19914;-77
2023/03/02 00:38:04;;;;;;;;;;;-0.30;99.90;;;;;;4981342;28;19921;-76
2023/03/02 00:40:29;;;;;;;;;;;-0.40;99.90;;;;;;4994581;28;19914;-80
2023/03/02 00:42:55;;;;;;;;;;;-0.50;99.90;;;;;;4990252;28;20308;-76
2023/03/02 00:45:21;;;;;;;;;;;-0.60;99.90;;;;;;4994575;28;20491;-76
2023/03/02 00:47:47;;;;;;;;;;;-0.60;99.90;;;;;;4997173;28;19913;-76
2023/03/02 00:50:13;;;;;;;;;;;-0.70;99.90;;;;;;4994693;28;19986;-76
2023/03/02 00:52:39;;;;;;;;;;;-0.80;99.90;;;;;;4991474;28;20514;-77
2023/03/02 00:55:05;;;;;;;;;;;-0.90;99.90;;;;;;4994771;28;20012;-76
2023/03/02 00:57:31;;;;;;;;;;;-0.90;99.90;;;;;;4994650;28;19914;-80
2023/03/02 00:59:58;;;;;;;;;;;-1.00;99.90;;;;;;4977464;28;19918;-77
2023/03/02 01:02:32;;;;;;;;;;;-1.10;99.90;;;;;;4984918;28;19918;-80
2023/03/02 01:04:58;;;;;;;;;;;-1.00;99.90;;;;;;4977397;28;19914;-76
2023/03/02 01:07:27;;;;;;;;;;;-0.90;99.90;;;;;;4991805;28;19916;-77
2023/03/02 01:09:53;;;;;;;;;;;-0.80;99.90;;;;;;4996203;28;20032;-77
2023/03/02 01:12:19;;;;;;;;;;;-0.70;99.90;;;;;;4978357;28;19917;-77
2023/03/02 01:14:46;;;;;;;;;;;-0.70;99.90;;;;;;4995990;28;19914;-76
2023/03/02 01:17:13;;;;;;;;;;;-0.70;99.90;;;;;;4994012;28;19921;-77
2023/03/02 01:19:39;;;;;;;;;;;-0.60;99.90;;;;;;4998866;28;19914;-77
2023/03/02 01:22:06;;;;;;;;;;;-0.30;99.90;;;;;;4985221;28;19914;-76
2023/03/02 01:24:32;;;;;;;;;;;-0.30;99.90;;;;;;4999361;28;19918;-79
2023/03/02 01:26:58;;;;;;;;;;;-0.40;99.90;;;;;;4993231;28;19910;-76
2023/03/02 01:29:24;;;;;;;;;;;-0.50;99.90;;;;;;4992922;28;20079;-77
2023/03/02 01:31:50;;;;;;;;;;;-0.50;99.90;;;;;;4974362;28;19917;-76
2023/03/02 01:34:16;;;;;;;;;;;-0.60;99.90;;;;;;4996904;28;19921;-77
2023/03/02 01:36:45;;;;;;;;;;;-0.50;99.90;;;;;;4991643;28;19918;-77
2023/03/02 01:39:15;;;;;;;;;;;-0.50;99.90;;;;;;4992757;28;19917;-77
2023/03/02 01:41:42;;;;;;;;;;;-0.50;99.90;;;;;;4987634;28;19922;-77
2023/03/02 01:44:28;;;;;;;;;;;-0.40;99.90;;;;;;4977942;28;19914;-77
2023/03/02 01:46:54;;;;;;;;;;;-0.30;99.90;;;;;;4999159;28;19914;-78
2023/03/02 01:49:21;;;;;;;;;;;-0.40;99.90;;;;;;4979298;28;19918;-78
2023/03/02 01:51:59;;;;;;;;;;;-0.40;99.90;;;;;;4988077;28;19922;-77
2023/03/02 01:54:25;;;;;;;;;;;-0.40;99.90;;;;;;4978070;28;20385;-77
2023/03/02 01:56:55;;;;;;;;;;;-0.30;99.90;;;;;;4984628;28;19906;-76
2023/03/02 01:59:22;;;;;;;;;;;-0.10;99.90;;;;;;4983470;28;20286;-77
2023/03/02 02:01:51;;;;;;;;;;;-0.10;99.90;;;;;;4929771;28;1758179;-77
2023/03/02 02:04:18;;;;;;;;;;;-0.10;99.90;;;;;;4998330;28;19913;-77
2023/03/02 02:06:50;;;;;;;;;;;-0.20;99.90;;;;;;4994195;28;19914;-77
2023/03/02 02:09:17;;;;;;;;;;;-0.50;99.90;;;;;;4995039;28;19929;-76
2023/03/02 02:11:43;;;;;;;;;;;-0.60;99.90;;;;;;4985648;28;20278;-77
2023/03/02 02:14:09;;;;;;;;;;;-0.80;99.90;;;;;;4993153;28;19914;-77
2023/03/02 02:16:36;;;;;;;;;;;-1.00;99.90;;;;;;4996395;28;19918;-80
2023/03/02 02:19:04;;;;;;;;;;;-1.00;99.90;;;;;;4993292;28;19914;-77
2023/03/02 02:21:30;;;;;;;;;;;-1.20;99.90;;;;;;4991895;28;19913;-78
2023/03/02 02:24:12;;;;;;;;;;;-1.30;99.90;;;;;;4993062;28;19918;-76
2023/03/02 02:26:42;;;;;;;;;;;-1.30;99.90;;;;;;4992252;28;19920;-77
2023/03/02 02:29:12;;;;;;;;;;;-1.30;99.90;;;;;;4993113;28;19914;-77
2023/03/02 02:31:47;;;;;;;;;;;-1.30;99.90;;;;;;4991009;28;19921;-78
2023/03/02 02:34:21;;;;;;;;;;;-1.30;99.90;;;;;;4989402;28;19913;-77
2023/03/02 02:36:50;;;;;;;;;;;-1.20;99.90;;;;;;4979849;28;19914;-77
2023/03/02 02:39:20;;;;;;;;;;;-1.30;99.90;;;;;;4985387;28;20367;-76
2023/03/02 02:41:48;;;;;;;;;;;-1.20;99.90;;;;;;4991340;28;19918;-76
2023/03/02 02:44:16;;;;;;;;;;;-1.00;99.90;;;;;;4979946;28;19918;-77
2023/03/02 02:46:43;;;;;;;;;;;-0.90;99.90;;;;;;4992659;28;19910;-76
2023/03/02 02:49:17;;;;;;;;;;;-0.80;99.90;;;;;;4992553;28;20379;-77
2023/03/02 02:51:43;;;;;;;;;;;-0.70;99.90;;;;;;4990762;28;19933;-76
2023/03/02 02:54:10;;;;;;;;;;;-0.70;99.90;;;;;;4992752;28;19925;-76
2023/03/02 02:56:37;;;;;;;;;;;-0.70;99.90;;;;;;4992090;28;19914;-79
2023/03/02 02:59:09;;;;;;;;;;;-0.70;99.90;;;;;;4998357;28;19914;-76
2023/03/02 03:01:35;;;;;;;;;;;-0.70;99.90;;;;;;4989341;28;19925;-79
2023/03/02 03:04:04;;;;;;;;;;;-0.70;99.90;;;;;;4989404;28;20310;-75
2023/03/02 03:06:40;;;;;;;;;;;-0.70;99.90;;;;;;4993290;28;19913;-75
2023/03/02 03:09:07;;;;;;;;;;;-0.70;99.90;;;;;;4992642;28;20038;-77
2023/03/02 03:11:43;;;;;;;;;;;-0.70;99.90;;;;;;4977057;28;20279;-78
2023/03/02 03:14:14;;;;;;;;;;;-0.70;99.90;;;;;;4975235;28;19921;-76
2023/03/02 03:16:42;;;;;;;;;;;-0.70;99.90;;;;;;4988683;28;19929;-78
2023/03/02 03:19:17;;;;;;;;;;;-0.70;99.90;;;;;;4984311;28;19913;-77
2023/03/02 03:21:43;;;;;;;;;;;-0.80;99.90;;;;;;4980560;28;19921;-76
2023/03/02 03:24:10;;;;;;;;;;;-0.80;99.90;;;;;;4982645;28;19914;-77
2023/03/02 03:26:36;;;;;;;;;;;-0.90;99.90;;;;;;4992814;28;19921;-80
2023/03/02 03:29:03;;;;;;;;;;;-0.90;99.90;;;;;;4994180;28;19914;-78
2023/03/02 03:31:29;;;;;;;;;;;-1.00;99.90;;;;;;4982179;28;19933;-78
2023/03/02 03:33:59;;;;;;;;;;;-1.00;99.90;;;;;;4981637;28;20385;-77
2023/03/02 03:36:29;;;;;;;;;;;-1.10;99.90;;;;;;4973217;28;19920;-77
2023/03/02 03:38:56;;;;;;;;;;;-1.20;99.90;;;;;;4997951;28;19998;-77
2023/03/02 03:41:22;;;;;;;;;;;-1.30;99.90;;;;;;4980342;28;19938;-78
2023/03/02 03:43:49;;;;;;;;;;;-1.40;99.90;;;;;;4980069;28;19921;-77
2023/03/02 03:46:15;;;;;;;;;;;-1.40;99.90;;;;;;4982527;28;19914;-77
2023/03/02 03:48:42;;;;;;;;;;;-1.50;99.90;;;;;;4993839;28;19941;-78
2023/03/02 03:51:09;;;;;;;;;;;-1.50;99.90;;;;;;4997307;28;19924;-78
2023/03/02 03:53:35;;;;;;;;;;;-1.60;99.90;;;;;;4979806;28;19914;-81
2023/03/02 03:56:03;;;;;;;;;;;-1.70;99.90;;;;;;4981191;28;19914;-78
2023/03/02 03:58:30;;;;;;;;;;;-1.70;99.90;;;;;;4998466;28;19921;-77
2023/03/02 04:00:57;;;;;;;;;;;-1.70;99.90;;;;;;4980105;28;19922;-77
2023/03/02 04:03:24;;;;;;;;;;;-1.70;99.90;;;;;;4995366;28;20410;-77
2023/03/02 04:05:50;;;;;;;;;;;-1.80;1.00;;;;;;4987572;28;19944;-78
2023/03/02 04:08:17;;;;;;;;;;;-1.80;1.00;;;;;;4981153;28;19914;-78
2023/03/02 04:10:43;;;;;;;;;;;-1.80;1.00;;;;;;4994385;28;19918;-78
2023/03/02 04:13:10;;;;;;;;;;;-1.80;1.00;;;;;;4992001;28;19918;-77
2023/03/02 04:15:37;;;;;;;;;;;-1.90;1.00;;;;;;4987437;28;19910;-77
2023/03/02 04:18:03;;;;;;;;;;;-1.90;1.00;;;;;;4999135;28;19914;-77
2023/03/02 04:20:30;;;;;;;;;;;-2.00;1.00;;;;;;4981577;28;19917;-78
2023/03/02 04:22:56;;;;;;;;;;;-2.00;1.00;;;;;;4992850;28;19914;-77
2023/03/02 04:25:24;;;;;;;;;;;-2.10;1.00;;;;;;4985769;28;19914;-77
2023/03/02 04:27:54;;;;;;;;;;;-2.10;1.00;;;;;;4978917;28;19997;-77
2023/03/02 04:30:23;;;;;;;;;;;-2.10;1.00;;;;;;4988886;28;19922;-77
2023/03/02 04:32:50;;;;;;;;;;;-2.20;1.00;;;;;;4992923;28;19918;-77
2023/03/02 04:35:16;;;;;;;;;;;-2.10;1.00;;;;;;4978317;28;19921;-76
2023/03/02 04:37:42;;;;;;;;;;;-2.10;1.00;;;;;;4998898;28;20282;-77
2023/03/02 04:40:10;;;;;;;;;;;-2.10;1.00;;;;;;4995296;28;20385;-76
2023/03/02 04:42:36;;;;;;;;;;;-2.00;1.00;;;;;;4993286;28;19925;-77
2023/03/02 04:45:02;;;;;;;;;;;-2.00;1.00;;;;;;4992565;28;19965;-77
2023/03/02 04:47:28;;;;;;;;;;;-2.00;1.00;;;;;;4994635;28;20016;-76
2023/03/02 04:49:55;;;;;;;;;;;-2.00;1.00;;;;;;4994001;28;19917;-77
2023/03/02 04:52:21;;;;;;;;;;;-2.00;1.00;;;;;;4993243;28;19922;-77
2023/03/02 04:54:47;;;;;;;;;;;-2.00;1.00;;;;;;4999706;28;19924;-77
2023/03/02 04:57:13;;;;;;;;;;;-2.10;1.00;;;;;;4994191;28;19914;-77
2023/03/02 04:59:39;;;;;;;;;;;-2.10;1.00;;;;;;4997196;28;20267;-82
2023/03/02 05:02:05;;;;;;;;;;;-1.90;1.00;;;;;;5005657;28;19926;-77
2023/03/02 05:04:31;;;;;;;;;;;-1.90;1.00;;;;;;4999658;28;19965;-77
2023/03/02 05:06:57;;;;;;;;;;;-1.90;1.00;;;;;;4992819;28;19928;-77
2023/03/02 05:09:26;;;;;;;;;;;-2.00;1.00;;;;;;4990112;28;19909;-76
2023/03/02 05:11:56;;;;;;;;;;;-2.00;1.00;;;;;;4992354;28;19962;-76
2023/03/02 05:14:22;;;;;;;;;;;-2.10;1.00;;;;;;4994966;28;20275;-76
2023/03/02 05:16:48;;;;;;;;;;;-2.20;1.00;;;;;;4992968;28;19939;-77
2023/03/02 05:19:14;;;;;;;;;;;-2.30;1.00;;;;;;4997358;28;19917;-77
2023/03/02 05:21:40;;;;;;;;;;;-2.30;1.00;;;;;;4995823;28;20004;-80
2023/03/02 05:24:06;;;;;;;;;;;-2.30;1.00;;;;;;4993319;28;19920;-76
2023/03/02 05:26:32;;;;;;;;;;;-2.30;1.00;;;;;;4998373;28;19914;-76
2023/03/02 05:28:58;;;;;;;;;;;-2.30;1.00;;;;;;4993765;28;19914;-76
2023/03/02 05:31:28;;;;;;;;;;;-2.20;1.00;;;;;;4994341;28;19964;-76
2023/03/02 05:33:53;;;;;;;;;;;-2.10;1.00;;;;;;4992707;28;20367;-76
2023/03/02 05:36:20;;;;;;;;;;;-1.90;1.00;;;;;;4995715;28;19968;-76
2023/03/02 05:38:46;;;;;;;;;;;-1.90;1.00;;;;;;4979164;28;19914;-76
2023/03/02 05:41:12;;;;;;;;;;;-1.90;1.00;;;;;;4978789;28;20262;-77
2023/03/02 05:43:38;;;;;;;;;;;-1.80;99.90;;;;;;4993151;28;19913;-76
2023/03/02 05:46:04;;;;;;;;;;;-1.80;99.90;;;;;;4995451;28;19910;-76
2023/03/02 05:48:30;;;;;;;;;;;-1.70;99.90;;;;;;4980809;28;19918;-76
2023/03/02 05:50:56;;;;;;;;;;;-1.70;99.90;;;;;;4991634;28;19968;-76
2023/03/02 05:53:22;;;;;;;;;;;-1.70;99.90;;;;;;4979503;28;19948;-76
2023/03/02 05:55:48;;;;;;;;;;;-1.70;99.90;;;;;;4995070;28;19909;-76
2023/03/02 05:58:16;;;;;;;;;;;-1.60;99.90;;;;;;4993207;28;19914;-76
2023/03/02 06:00:42;;;;;;;;;;;-1.70;99.90;;;;;;4996804;28;19929;-78
2023/03/02 06:03:08;;;;;;;;;;;-1.60;99.90;;;;;;4995399;28;19925;-75
2023/03/02 06:05:34;;;;;;;;;;;-1.60;99.90;;;;;;4994881;28;19953;-75
2023/03/02 06:08:00;;;;;;;;;;;-1.60;99.90;;;;;;4994564;28;20338;-78
2023/03/02 06:10:26;;;;;;;;;;;-1.60;99.90;;;;;;4997771;28;20290;-75
2023/03/02 06:12:52;;;;;;;;;;;-1.50;99.90;;;;;;4994182;28;19925;-74
2023/03/02 06:15:18;;;;;;;;;;;-1.40;99.90;;;;;;4994426;28;20355;-78
2023/03/02 06:17:44;;;;;;;;;;;-1.20;99.90;;;;;;4989143;28;19957;-81
2023/03/02 06:20:11;;;;;;;;;;;-1.20;99.90;;;;;;4994734;28;19914;-75
2023/03/02 06:22:40;;;;;;;;;;;-1.10;99.90;;;;;;4993142;28;19914;-75
2023/03/02 06:25:10;;;;;;;;;;;-1.00;99.90;;;;;;4991199;28;19913;-74
2023/03/02 06:27:37;;;;;;;;;;;-1.00;99.90;;;;;;4991642;28;20338;-74
2023/03/02 06:30:03;;;;;;;;;;;-1.00;99.90;;;;;;4991802;28;19943;-74
2023/03/02 06:32:32;;;;;;;;;;;-0.90;99.90;;;;;;4992416;28;20359;-74
2023/03/02 06:34:59;;;;;;;;;;;-0.90;99.90;;;;;;4994857;28;19921;-75
2023/03/02 06:37:27;;;;;;;;;;;-0.90;99.90;;;;;;4986537;28;19964;-75
2023/03/02 06:39:54;;;;;;;;;;;-0.90;99.90;;;;;;4987717;28;19914;-75
2023/03/02 06:42:20;;;;;;;;;;;-1.00;99.90;;;;;;4983715;28;19914;-76
2023/03/02 06:44:47;;;;;;;;;;;-1.00;99.90;;;;;;4977332;28;19921;-76
2023/03/02 06:47:13;;;;;;;;;;;-1.00;99.90;;;;;;4991790;28;19921;-76
2023/03/02 06:49:39;;;;;;;;;;;-1.00;99.90;;;;;;4993547;28;19914;-76
2023/03/02 06:52:09;;;;;;;;;;;-1.00;99.90;;;;;;4991534;28;19932;-75
2023/03/02 06:54:36;;;;;;;;;;;-0.80;99.90;;;;;;4996491;28;19918;-75
2023/03/02 06:57:02;;;;;;;;;;;-0.50;99.90;;;;;;4991130;28;19925;-76
2023/03/02 06:59:28;;;;;;;;;;;0.00;99.90;;;;;;4976118;28;19921;-75
2023/03/02 07:01:54;;;;;;;;;;;0.50;99.90;;;;;;4992301;28;19926;-75
2023/03/02 07:04:20;;;;;;;;;;;1.00;99.90;;;;;;4992572;28;20427;-75
2023/03/02 07:06:46;;;;;;;;;;;1.20;99.90;;;;;;4988825;28;19964;-76
2023/03/02 07:09:12;;;;;;;;;;;1.30;99.90;;;;;;4992748;28;20382;-75
2023/03/02 07:11:38;;;;;;;;;;;1.60;99.90;;;;;;4990640;28;20359;-75
2023/03/02 07:14:05;;;;;;;;;;;1.80;99.90;;;;;;4995952;28;20282;-75
2023/03/02 07:16:32;;;;;;;;;;;2.20;99.90;;;;;;4991308;28;20014;-75
2023/03/02 07:18:58;;;;;;;;;;;2.20;99.90;;;;;;4992110;28;19910;-75
2023/03/02 07:21:24;;;;;;;;;;;2.20;99.90;;;;;;4992866;28;20442;-75
2023/03/02 07:23:50;;;;;;;;;;;2.40;99.90;;;;;;4995799;28;19968;-77
2023/03/02 07:26:16;;;;;;;;;;;2.40;99.90;;;;;;4981363;28;19961;-78
2023/03/02 07:28:43;;;;;;;;;;;2.60;99.90;;;;;;4995993;28;19925;-75
2023/03/02 07:31:09;;;;;;;;;;;2.90;99.90;;;;;;4994905;28;19917;-77
2023/03/02 07:33:36;;;;;;;;;;;2.90;99.90;;;;;;4992835;28;19922;-76
2023/03/02 07:36:02;;;;;;;;;;;2.90;99.90;;;;;;4978094;28;20374;-77
2023/03/02 07:38:28;;;;;;;;;;;3.30;99.90;;;;;;4991195;28;19910;-77
2023/03/02 07:40:54;;;;;;;;;;;3.30;99.90;;;;;;4992112;28;19980;-76
2023/03/02 07:43:22;;;;;;;;;;;3.40;99.90;;;;;;4979390;28;19913;-76
2023/03/02 07:45:48;;;;;;;;;;;3.40;99.90;;;;;;4990759;28;19965;-77
2023/03/02 07:48:14;;;;;;;;;;;3.80;99.90;;;;;;4992045;28;19913;-77
2023/03/02 07:50:40;;;;;;;;;;;4.00;99.90;;;;;;4994639;28;19922;-77
2023/03/02 07:53:06;;;;;;;;;;;4.00;99.90;;;;;;4991845;28;19964;-77
2023/03/02 07:55:32;;;;;;;;;;;4.20;99.90;;;;;;4977842;28;19914;-78
2023/03/02 07:57:58;;;;;;;;;;;4.30;99.90;;;;;;4990334;28;19993;-76
2023/03/02 08:00:24;;;;;;;;;;;3.90;99.90;;;;;;4993967;28;20005;-76
2023/03/02 08:02:50;;;;;;;;;;;3.80;99.90;;;;;;4995161;28;19918;-76
2023/03/02 08:05:16;;;;;;;;;;;4.20;99.90;;;;;;4995387;28;19913;-77
2023/03/02 08:07:44;;;;;;;;;;;4.40;99.90;;;;;;4996512;28;19913;-78
2023/03/02 08:10:10;;;;;;;;;;;4.40;99.90;;;;;;4981744;28;19909;-77
2023/03/02 08:12:36;;;;;;;;;;;4.80;99.90;;;;;;4994979;28;19925;-76
2023/03/02 08:15:03;;;;;;;;;;;4.90;99.90;;;;;;5000049;28;19914;-77
2023/03/02 08:17:28;;;;;;;;;;;5.20;99.90;;;;;;4977788;28;19910;-76
2023/03/02 08:19:54;;;;;;;;;;;5.50;99.90;;;;;;4984087;28;19914;-77
2023/03/02 08:22:20;;;;;;;;;;;5.10;99.90;;;;;;4989322;28;19910;-76
2023/03/02 08:24:46;;;;;;;;;;;5.10;99.90;;;;;;4999352;28;19917;-76
2023/03/02 08:27:13;;;;;;;;;;;5.20;99.90;;;;;;4988089;28;19971;-76
2023/03/02 08:29:40;;;;;;;;;;;5.60;99.90;;;;;;4998195;28;19918;-76
2023/03/02 08:32:06;;;;;;;;;;;6.00;99.90;;;;;;4993682;28;19922;-77
2023/03/02 08:34:32;;;;;;;;;;;5.80;99.90;;;;;;4996385;28;19917;-76
2023/03/02 08:36:58;;;;;;;;;;;6.20;99.90;;;;;;4978946;28;20354;-76
2023/03/02 08:39:24;;;;;;;;;;;7.20;99.90;;;;;;4995102;28;19921;-76
2023/03/02 08:41:51;;;;;;;;;;;7.80;99.90;;;;;;4993560;28;19913;-86
2023/03/02 08:44:19;;;;;;;;;;;7.80;99.90;;;;;;4992266;28;20283;-76
2023/03/02 08:46:45;;;;;;;;;;;8.10;99.90;;;;;;4986690;28;20417;-74
2023/03/02 08:49:11;;;;;;;;;;;8.20;99.90;;;;;;4992965;28;19937;-78
2023/03/02 08:51:37;;;;;;;;;;;7.90;99.90;;;;;;4999669;28;19940;-74
2023/03/02 08:54:04;;;;;;;;;;;8.10;99.90;;;;;;4990215;28;19925;-74
2023/03/02 08:56:31;;;;;;;;;;;8.30;99.90;;;;;;4981733;28;19916;-78
2023/03/02 08:58:58;;;;;;;;;;;8.50;99.90;;;;;;4991406;28;19914;-74
2023/03/02 09:01:25;;;;;;;;;;;8.80;99.90;;;;;;4995074;28;20239;-74
2023/03/02 09:03:51;;;;;;;;;;;8.50;99.90;;;;;;4979867;28;20390;-79
2023/03/02 09:06:17;;;;;;;;;;;9.10;99.90;;;;;;4978534;28;19912;-75
2023/03/02 09:08:43;;;;;;;;;;;8.90;99.90;;;;;;4993335;28;19921;-76
2023/03/02 09:11:10;;;;;;;;;;;9.20;99.90;;;;;;4997815;28;19929;-76
2023/03/02 09:13:36;;;;;;;;;;;9.40;99.90;;;;;;4980746;28;19914;-79
2023/03/02 09:16:02;;;;;;;;;;;8.60;99.90;;;;;;4982018;28;19921;-76
2023/03/02 09:18:29;;;;;;;;;;;9.20;99.90;;;;;;4996175;28;19913;-75
2023/03/02 09:20:55;;;;;;;;;;;8.90;99.90;;;;;;4989741;28;19916;-77
2023/03/02 09:23:22;;;;;;;;;;;8.20;99.90;;;;;;4995809;28;19926;-80
2023/03/02 09:25:48;;;;;;;;;;;8.40;99.90;;;;;;4995572;28;19914;-79
2023/03/02 09:28:14;;;;;;;;;;;8.10;99.90;;;;;;4994709;28;19910;-82
2023/03/02 09:30:41;;;;;;;;;;;7.90;99.90;;;;;;4998298;28;19917;-79
2023/03/02 09:33:07;;;;;;;;;;;8.00;99.90;;;;;;4994516;28;19917;-77
2023/03/02 09:35:32;;;;;;;;;;;7.70;99.90;;;;;;5000794;28;20347;-77
2023/03/02 09:37:58;;;;;;;;;;;8.40;99.90;;;;;;4995899;28;19957;-76
2023/03/02 09:40:25;;;;;;;;;;;8.80;99.90;;;;;;4998516;28;19920;-79
2023/03/02 09:42:54;;;;;;;;;;;9.00;99.90;;;;;;4994458;28;19918;-77
2023/03/02 09:45:28;;;;;;;;;;;9.20;99.90;;;;;;4994807;28;19917;-75
2023/03/02 09:47:54;;;;;;;;;;;9.10;99.90;;;;;;4992912;28;19914;-77
2023/03/02 09:50:26;;;;;;;;;;;8.40;99.90;;;;;;4984342;28;19921;-76
2023/03/02 09:53:03;;;;;;;;;;;8.70;99.90;;;;;;4994380;28;19918;-78
2023/03/02 09:55:32;;;;;;;;;;;9.30;99.90;;;;;;4997388;28;19921;-75
2023/03/02 09:58:01;;;;;;;;;;;9.10;99.90;;;;;;5003210;28;19913;-75
2023/03/02 10:00:28;;;;;;;;;;;8.40;99.90;;;;;;4998867;28;19921;-73
2023/03/02 10:03:05;;;;;;;;;;;8.50;99.90;;;;;;4993041;28;19918;-74
2023/03/02 10:05:37;;;;;;;;;;;8.20;99.90;;;;;;4990372;28;19917;-76
2023/03/02 10:08:04;;;;;;;;;;;8.00;99.90;;;;;;4999243;28;19913;-73
2023/03/02 10:10:48;;;;;;;;;;;7.70;99.90;;;;;;4994590;28;19917;-72
2023/03/02 10:13:41;;;;;;;;;;;7.80;99.90;;;;;;4999920;28;19922;-74
2023/03/02 10:16:12;;;;;;;;;;;7.80;99.90;;;;;;4985486;28;19913;-76
2023/03/02 10:18:44;;;;;;;;;;;7.90;99.90;;;;;;4994250;28;19930;-76
2023/03/02 10:21:10;;;;;;;;;;;8.10;99.90;;;;;;4993115;28;20274;-76
2023/03/02 10:23:52;;;;;;;;;;;8.00;99.90;;;;;;4993165;28;19914;-78
2023/03/02 10:26:27;;;;;;;;;;;8.10;99.90;;;;;;4988010;28;19921;-73
2023/03/02 10:29:12;;;;;;;;;;;8.20;99.90;;;;;;4992925;28;20035;-74
2023/03/02 10:31:39;;;;;;;;;;;8.30;99.90;;;;;;4996484;28;20398;-72
2023/03/02 10:34:09;;;;;;;;;;;8.40;99.90;;;;;;4998237;28;20346;-72
2023/03/02 10:36:39;;;;;;;;;;;8.50;99.90;;;;;;4978240;28;19921;-73
2023/03/02 10:39:12;;;;;;;;;;;8.60;99.90;;;;;;4995629;28;19921;-72
2023/03/02 10:41:42;;;;;;;;;;;8.40;99.90;;;;;;4989841;28;19914;-72
2023/03/02 10:44:21;;;;;;;;;;;8.50;99.90;;;;;;4992554;28;20248;-74
2023/03/02 10:46:47;;;;;;;;;;;8.70;99.90;;;;;;4995629;28;20279;-74
2023/03/02 10:49:23;;;;;;;;;;;8.70;99.90;;;;;;4988456;28;19914;-73
2023/03/02 10:51:56;;;;;;;;;;;8.90;99.90;;;;;;4986870;28;19941;-72
2023/03/02 10:54:24;;;;;;;;;;;9.20;99.90;;;;;;4994742;28;19918;-74
2023/03/02 10:56:52;;;;;;;;;;;9.20;99.90;;;;;;4985184;28;20267;-73
2023/03/02 10:59:25;;;;;;;;;;;9.10;99.90;;;;;;4998445;28;19914;-72
2023/03/02 11:02:01;;;;;;;;;;;9.20;99.90;;;;;;4993214;28;19926;-72
2023/03/02 11:04:28;;;;;;;;;;;9.40;99.90;;;;;;4979035;28;19917;-73
2023/03/02 11:06:55;;;;;;;;;;;9.30;99.90;;;;;;4991388;28;19917;-72
2023/03/02 11:09:21;;;;;;;;;;;9.40;99.90;;;;;;4992009;28;20282;-74
2023/03/02 11:11:48;;;;;;;;;;;9.30;99.90;;;;;;4976166;28;19918;-73
2023/03/02 11:14:15;;;;;;;;;;;9.30;99.90;;;;;;4991972;28;19918;-72
2023/03/02 11:16:41;;;;;;;;;;;9.60;99.90;;;;;;4991896;28;19933;-77
2023/03/02 11:19:13;;;;;;;;;;;9.90;99.90;;;;;;4977484;28;20264;-74
2023/03/02 11:21:39;;;;;;;;;;;9.60;99.90;;;;;;4993452;28;19921;-75
2023/03/02 11:24:11;;;;;;;;;;;9.70;99.90;;;;;;4977903;28;19914;-77
2023/03/02 11:26:37;;;;;;;;;;;9.70;99.90;;;;;;4976971;28;19957;-74
2023/03/02 11:29:09;;;;;;;;;;;9.90;99.90;;;;;;4995570;28;19914;-73
2023/03/02 11:31:40;;;;;;;;;;;9.80;99.90;;;;;;4984310;28;19918;-74
2023/03/02 11:34:10;;;;;;;;;;;9.90;99.90;;;;;;4989538;28;20378;-76
2023/03/02 11:36:51;;;;;;;;;;;9.80;99.90;;;;;;4996453;28;19925;-75
2023/03/02 11:39:21;;;;;;;;;;;9.80;99.90;;;;;;4997776;28;19913;-77
2023/03/02 11:41:47;;;;;;;;;;;9.80;99.90;;;;;;5002698;28;19914;-75
2023/03/02 11:44:17;;;;;;;;;;;9.90;99.90;;;;;;4995530;28;19921;-76
2023/03/02 11:46:45;;;;;;;;;;;10.10;99.90;;;;;;4998950;28;19921;-76
2023/03/02 11:49:14;;;;;;;;;;;10.20;99.90;;;;;;4986761;28;19917;-76
2023/03/02 11:51:46;;;;;;;;;;;10.30;99.90;;;;;;4983808;28;19925;-75
2023/03/02 11:54:28;;;;;;;;;;;10.40;99.90;;;;;;4991656;28;19929;-77
2023/03/02 11:56:54;;;;;;;;;;;10.30;99.90;;;;;;4967945;28;19993;-78
2023/03/02 11:59:20;;;;;;;;;;;10.10;99.90;;;;;;5000148;28;19944;-75
2023/03/02 12:01:49;;;;;;;;;;;10.10;99.90;;;;;;4995849;28;19949;-77
2023/03/02 12:04:27;;;;;;;;;;;10.20;99.90;;;;;;4983312;28;20267;-76
2023/03/02 12:06:53;;;;;;;;;;;10.20;99.90;;;;;;4996781;28;19914;-76
2023/03/02 12:09:22;;;;;;;;;;;10.40;99.90;;;;;;4997897;28;19925;-77
2023/03/02 12:11:56;;;;;;;;;;;10.50;99.90;;;;;;4987564;28;19933;-76
2023/03/02 12:14:27;;;;;;;;;;;10.30;99.90;;;;;;4995153;28;19922;-75
2023/03/02 12:17:12;;;;;;;;;;;10.30;99.90;;;;;;4995803;28;20449;-74
2023/03/02 12:19:39;;;;;;;;;;;10.40;99.90;;;;;;5004498;28;19917;-76
2023/03/02 12:22:08;;;;;;;;;;;10.60;99.90;;;;;;4995817;28;20363;-76
2023/03/02 12:24:36;;;;;;;;;;;10.70;99.90;;;;;;4999200;28;19913;-75
2023/03/02 12:27:25;;;;;;;;;;;10.60;99.90;;;;;;4997117;28;19934;-78
2023/03/02 12:29:54;;;;;;;;;;;10.70;99.90;;;;;;4989616;28;19921;-79
2023/03/02 12:32:23;;;;;;;;;;;10.90;99.90;;;;;;5001926;28;19921;-76
2023/03/02 12:35:07;;;;;;;;;;;10.90;99.90;;;;;;5005049;28;19924;-75
2023/03/02 12:37:52;;;;;;;;;;;10.90;99.90;;;;;;4994343;28;20406;-75
2023/03/02 12:40:44;;;;;;;;;;;11.10;99.90;;;;;;4974599;28;19918;-75
2023/03/02 12:43:26;;;;;;;;;;;10.80;99.90;;;;;;4994683;28;19914;-75
2023/03/02 12:46:04;;;;;;;;;;;10.80;99.90;;;;;;4977967;28;20259;-74
2023/03/02 12:48:39;;;;;;;;;;;10.70;99.90;;;;;;4982786;28;19918;-76
2023/03/02 12:51:10;;;;;;;;;;;10.90;99.90;;;;;;4987455;28;19921;-75
2023/03/02 12:53:38;;;;;;;;;;;10.90;99.90;;;;;;4981042;28;20250;-76
2023/03/02 12:56:06;;;;;;;;;;;11.00;99.90;;;;;;4981143;28;19921;-76
2023/03/02 12:58:32;;;;;;;;;;;11.10;99.90;;;;;;4995053;28;19917;-81
2023/03/02 13:01:00;;;;;;;;;;;11.00;99.90;;;;;;5000352;28;19928;-74
2023/03/02 13:03:27;;;;;;;;;;;11.10;99.90;;;;;;4997258;28;19918;-80
2023/03/02 13:06:02;;;;;;;;;;;11.10;99.90;;;;;;4995648;28;19936;-75
2023/03/02 13:08:29;;;;;;;;;;;11.10;99.90;;;;;;4999854;28;20351;-78
2023/03/02 13:10:59;;;;;;;;;;;11.20;99.90;;;;;;5003027;28;19920;-79
2023/03/02 13:13:31;;;;;;;;;;;11.40;99.90;;;;;;4997364;28;20158;-77
2023/03/02 13:15:59;;;;;;;;;;;11.40;99.90;;;;;;5000677;28;19914;-81
2023/03/02 13:18:30;;;;;;;;;;;11.40;99.90;;;;;;4995128;28;19921;-80
2023/03/02 13:20:57;;;;;;;;;;;11.40;99.90;;;;;;5011992;28;19913;-79
2023/03/02 13:23:23;;;;;;;;;;;11.50;99.90;;;;;;5003579;28;19921;-77
2023/03/02 13:25:54;;;;;;;;;;;11.50;99.90;;;;;;4996511;28;20279;-80
2023/03/02 13:28:27;;;;;;;;;;;11.50;99.90;;;;;;5001929;28;19914;-78
2023/03/02 13:31:16;;;;;;;;;;;11.60;99.90;;;;;;4976229;28;19913;-80
2023/03/02 13:33:44;;;;;;;;;;;11.60;99.90;;;;;;4985540;28;19945;-76
2023/03/02 13:36:17;;;;;;;;;;;11.60;99.90;;;;;;4997001;28;19916;-82
2023/03/02 13:38:45;;;;;;;;;;;11.50;99.90;;;;;;4999720;28;19914;-82
2023/03/02 13:41:19;;;;;;;;;;;11.50;99.90;;;;;;4993927;28;19944;-77
2023/03/02 13:43:45;;;;;;;;;;;11.40;99.90;;;;;;4996816;28;19914;-81
2023/03/02 13:46:11;;;;;;;;;;;11.40;99.90;;;;;;4996352;28;19996;-78
2023/03/02 13:48:37;;;;;;;;;;;11.40;99.90;;;;;;5002335;28;19917;-80
2023/03/02 13:51:13;;;;;;;;;;;11.60;99.90;;;;;;4997985;28;19913;-81
2023/03/02 13:53:41;;;;;;;;;;;11.60;99.90;;;;;;4972302;28;19925;-80
2023/03/02 13:56:09;;;;;;;;;;;11.40;99.90;;;;;;4999038;28;19921;-77
2023/03/02 13:58:37;;;;;;;;;;;11.50;99.90;;;;;;5006499;28;19924;-82
2023/03/02 14:01:03;;;;;;;;;;;11.60;99.90;;;;;;5000423;28;19922;-75
2023/03/02 14:03:30;;;;;;;;;;;11.70;99.90;;;;;;5002103;28;19922;-79
2023/03/02 14:05:56;;;;;;;;;;;11.80;99.90;;;;;;4995907;28;19917;-88
2023/03/02 14:08:23;;;;;;;;;;;11.90;99.90;;;;;;4997093;28;20363;-78
2023/03/02 14:10:50;;;;;;;;;;;12.00;99.90;;;;;;4997547;28;20375;-78
2023/03/02 14:13:17;;;;;;;;;;;12.00;99.90;;;;;;4980598;28;19924;-76
2023/03/02 14:15:48;;;;;;;;;;;12.10;99.90;;;;;;4991740;28;19913;-80
2023/03/02 14:18:21;;;;;;;;;;;12.20;99.90;;;;;;4984132;28;19925;-80
2023/03/02 14:20:46;;;;;;;;;;;12.00;99.90;;;;;;4998788;28;19913;-82
2023/03/02 14:23:12;;;;;;;;;;;12.00;99.90;;;;;;4995730;28;20026;-83
2023/03/02 14:25:38;;;;;;;;;;;12.00;99.90;;;;;;4983555;28;19945;-78
2023/03/02 14:28:04;;;;;;;;;;;12.10;99.90;;;;;;4986942;28;19920;-75
2023/03/02 14:30:30;;;;;;;;;;;12.10;99.90;;;;;;4994185;28;19913;-80